Create Tblcommutelog Verified Points Advance Search
| # | Trip ID | Id Commuter | Trip Date | Trip Num | Current Lat | Current Lng | Delta Distance | Current Time | Activity | Activity Confidence | Current Speed | |
|---|---|---|---|---|---|---|---|---|---|---|---|---|
| 71261 | 250610_781588_16504560_0806 | 781588 | (not set) | (not set) | 38.943087894172 | -77.065019020287 | 5.6671 | 2025-06-10 12:24:04.156 | in_vehicle | 100 | -0.44703925898772 | |
| 71262 | 250610_770164_16511074_0801 | 770164 | (not set) | (not set) | 38.865812098658 | -77.122854219254 | 2.7288 | 2025-06-10 12:24:04.303 | on_foot | 100 | 3.2097418795319 | |
| 71263 | 250610_669170_16500693_0705 | 669170 | (not set) | (not set) | 38.942294041719 | -76.99856975983 | 46.1724 | 2025-06-10 12:24:04.425 | in_vehicle | 100 | 11.676665444759 | |
| 71264 | 250610_781890_16477994_0803 | 781890 | (not set) | (not set) | 39.112605962792 | -77.546985355482 | 3.1149 | 2025-06-10 12:24:06.183 | in_vehicle | 100 | 5.936681359357 | |
| 71265 | 250610_752246_16512995_0759 | 752246 | (not set) | (not set) | 38.893227137224 | -76.97251794963 | 7.4218 | 2025-06-10 12:24:06.985 | in_vehicle | 100 | 11.046340089587 | |
| 71266 | 250610_781975_16497756_0714 | 781975 | (not set) | (not set) | 38.884889250657 | -77.031989889291 | 26.3182 | 2025-06-10 12:24:07.274 | in_vehicle | 100 | 1.6719268286141 | |
| 71267 | 250610_736323_16502135_0753 | 736323 | (not set) | (not set) | 38.873266477872 | -77.052795768937 | 6.7539 | 2025-06-10 12:24:07.412 | in_vehicle | 100 | -0.44703925898772 | |
| 71268 | 250610_785302_16513328_0800 | 785302 | (not set) | (not set) | 38.901275506347 | -77.040350691975 | 7.5592 | 2025-06-10 12:24:09.233 | on_foot | 100 | 0.48727279229662 | |
| 71269 | 250610_779784_16456978_0734 | 779784 | (not set) | (not set) | 39.174867833828 | -77.256335461012 | 12.77 | 2025-06-10 12:24:10.676 | in_vehicle | 100 | -0.44703925898772 | |
| 71270 | 250610_785794_16457956_0824 | 785794 | (not set) | (not set) | 38.8960704 | -77.0246687 | 0 | 2025-06-10 12:24:11.31 | still | 100 | 0.60350299963343 | |
| 71271 | 250610_785794_16457956_0824 | 785794 | (not set) | (not set) | 38.8960704 | -77.0246687 | 0 | 2025-06-10 12:24:11.39 | walking | 100 | 0.60350299963343 | |
| 71272 | 250610_780856_6461772_0820 | 780856 | (not set) | (not set) | 38.947531941932 | -77.114925553783 | 0.9113 | 2025-06-10 12:24:12.196 | on_bicycle | 100 | 2.6911763391061 | |
| 71273 | 250610_782325_6461772_0809 | 782325 | (not set) | (not set) | 38.905709601571 | -77.038509305176 | 1.6719 | 2025-06-10 12:24:13.197 | in_vehicle | 100 | 2.6062388798984 | |
| 71274 | 250610_780724_16421763_0807 | 780724 | (not set) | (not set) | 38.940547712883 | -77.115218805084 | 3.3394 | 2025-06-10 12:24:13.282 | on_bicycle | 100 | 3.205271486942 | |
| 71275 | 250610_780813_16421763_0734 | 780813 | (not set) | (not set) | 38.812990914338 | -77.144570330434 | 10.4595 | 2025-06-10 12:24:13.383 | in_vehicle | 100 | 11.895714681663 | |
| 71276 | 250610_785681_16514248_0816 | 785681 | (not set) | (not set) | 39.076104720952 | -77.162198791806 | 2.3518 | 2025-06-10 12:24:13.966 | unknown | 100 | 4.7028530045509 | |
| 71277 | 250610_772317_6438355_0759 | 772317 | (not set) | (not set) | 38.912005641291 | -77.052898709585 | 3.7659 | 2025-06-10 12:24:14.359 | on_bicycle | 100 | 3.2186826647116 | |
| 71278 | 250610_785681_16514248_0816 | 785681 | (not set) | (not set) | 39.076217318337 | -77.161959608448 | 2.3669 | 2025-06-10 12:24:14.462 | unknown | 100 | 5.2393001153361 | |
| 71279 | 250610_784617_16489083_0810 | 784617 | (not set) | (not set) | 38.800449908005 | -77.120413946665 | 8.5525 | 2025-06-10 12:24:14.557 | in_vehicle | 100 | 11.819718007635 | |
| 71280 | 250610_700992_16414139_0800 | 700992 | (not set) | (not set) | 39.073239114148 | -77.163811853289 | 11.0522 | 2025-06-10 12:24:15.271 | in_vehicle | 100 | 4.2692249233328 |